sensor_id;sensor_type;location;lat;lon;timestamp;P1;durP1;ratioP1;P2;durP2;ratioP2
66095;SDS011;53861;53.422;14.530;2023-03-23T00:01:39;10.27;;;4.97;;
66095;SDS011;53861;53.422;14.530;2023-03-23T00:04:08;9.23;;;5.00;;
66095;SDS011;53861;53.422;14.530;2023-03-23T00:06:38;11.20;;;5.43;;
66095;SDS011;53861;53.422;14.530;2023-03-23T00:09:06;9.55;;;5.00;;
66095;SDS011;53861;53.422;14.530;2023-03-23T00:11:35;9.27;;;4.88;;
66095;SDS011;53861;53.422;14.530;2023-03-23T00:14:03;9.82;;;5.00;;
66095;SDS011;53861;53.422;14.530;2023-03-23T00:16:40;8.65;;;4.55;;
66095;SDS011;53861;53.422;14.530;2023-03-23T00:19:09;11.00;;;4.80;;
66095;SDS011;53861;53.422;14.530;2023-03-23T00:21:40;9.00;;;4.60;;
66095;SDS011;53861;53.422;14.530;2023-03-23T00:24:12;11.73;;;4.85;;
66095;SDS011;53861;53.422;14.530;2023-03-23T00:26:43;11.32;;;5.20;;
66095;SDS011;53861;53.422;14.530;2023-03-23T00:29:12;10.35;;;4.63;;
66095;SDS011;53861;53.422;14.530;2023-03-23T00:31:43;7.72;;;4.45;;
66095;SDS011;53861;53.422;14.530;2023-03-23T00:34:14;13.45;;;5.05;;
66095;SDS011;53861;53.422;14.530;2023-03-23T00:36:47;10.32;;;4.60;;
66095;SDS011;53861;53.422;14.530;2023-03-23T00:39:16;8.77;;;4.63;;
66095;SDS011;53861;53.422;14.530;2023-03-23T00:41:44;12.18;;;4.85;;
66095;SDS011;53861;53.422;14.530;2023-03-23T00:44:13;8.52;;;4.60;;
66095;SDS011;53861;53.422;14.530;2023-03-23T00:46:46;11.10;;;4.82;;
66095;SDS011;53861;53.422;14.530;2023-03-23T00:49:18;11.60;;;4.60;;
66095;SDS011;53861;53.422;14.530;2023-03-23T00:51:51;11.48;;;4.70;;
66095;SDS011;53861;53.422;14.530;2023-03-23T00:54:19;7.55;;;4.40;;
66095;SDS011;53861;53.422;14.530;2023-03-23T00:56:53;9.95;;;4.78;;
66095;SDS011;53861;53.422;14.530;2023-03-23T00:59:41;8.63;;;4.45;;
66095;SDS011;53861;53.422;14.530;2023-03-23T01:02:11;8.77;;;4.70;;
66095;SDS011;53861;53.422;14.530;2023-03-23T01:04:50;13.27;;;5.28;;
66095;SDS011;53861;53.422;14.530;2023-03-23T01:07:18;9.13;;;4.45;;
66095;SDS011;53861;53.422;14.530;2023-03-23T01:09:46;9.68;;;4.80;;
66095;SDS011;53861;53.422;14.530;2023-03-23T01:12:18;9.43;;;5.07;;
66095;SDS011;53861;53.422;14.530;2023-03-23T01:14:48;8.63;;;4.50;;
66095;SDS011;53861;53.422;14.530;2023-03-23T01:17:17;8.93;;;4.78;;
66095;SDS011;53861;53.422;14.530;2023-03-23T01:19:46;10.85;;;4.65;;
66095;SDS011;53861;53.422;14.530;2023-03-23T01:22:15;9.82;;;4.85;;
66095;SDS011;53861;53.422;14.530;2023-03-23T01:24:46;9.05;;;4.63;;
66095;SDS011;53861;53.422;14.530;2023-03-23T01:27:14;9.27;;;4.72;;
66095;SDS011;53861;53.422;14.530;2023-03-23T01:29:45;9.85;;;4.65;;
66095;SDS011;53861;53.422;14.530;2023-03-23T01:32:12;9.18;;;4.80;;
66095;SDS011;53861;53.422;14.530;2023-03-23T01:34:43;13.95;;;5.25;;
66095;SDS011;53861;53.422;14.530;2023-03-23T01:37:11;11.68;;;5.15;;
66095;SDS011;53861;53.422;14.530;2023-03-23T01:39:42;12.07;;;5.40;;
66095;SDS011;53861;53.422;14.530;2023-03-23T01:42:10;10.73;;;5.00;;
66095;SDS011;53861;53.422;14.530;2023-03-23T01:47:55;11.07;;;5.28;;
66095;SDS011;53861;53.422;14.530;2023-03-23T01:50:30;9.98;;;4.93;;
66095;SDS011;53861;53.422;14.530;2023-03-23T01:53:03;10.43;;;5.10;;
66095;SDS011;53861;53.422;14.530;2023-03-23T01:55:35;9.63;;;5.28;;
66095;SDS011;53861;53.422;14.530;2023-03-23T01:58:09;9.23;;;5.00;;
66095;SDS011;53861;53.422;14.530;2023-03-23T02:00:38;9.80;;;5.35;;
66095;SDS011;53861;53.422;14.530;2023-03-23T02:03:08;9.50;;;4.95;;
66095;SDS011;53861;53.422;14.530;2023-03-23T02:05:43;13.07;;;5.22;;
66095;SDS011;53861;53.422;14.530;2023-03-23T02:08:11;10.30;;;5.28;;
66095;SDS011;53861;53.422;14.530;2023-03-23T02:10:44;13.55;;;5.45;;
66095;SDS011;53861;53.422;14.530;2023-03-23T02:13:15;11.25;;;5.72;;
66095;SDS011;53861;53.422;14.530;2023-03-23T02:15:54;12.27;;;5.47;;
66095;SDS011;53861;53.422;14.530;2023-03-23T02:18:36;9.25;;;4.95;;
66095;SDS011;53861;53.422;14.530;2023-03-23T02:24:27;9.63;;;4.72;;
66095;SDS011;53861;53.422;14.530;2023-03-23T02:27:16;8.77;;;5.40;;
66095;SDS011;53861;53.422;14.530;2023-03-23T02:30:10;15.27;;;5.82;;
66095;SDS011;53861;53.422;14.530;2023-03-23T02:32:50;11.50;;;5.22;;
66095;SDS011;53861;53.422;14.530;2023-03-23T02:35:52;11.55;;;4.85;;
66095;SDS011;53861;53.422;14.530;2023-03-23T02:38:27;9.75;;;5.15;;
66095;SDS011;53861;53.422;14.530;2023-03-23T02:41:01;10.60;;;5.00;;
66095;SDS011;53861;53.422;14.530;2023-03-23T02:43:31;8.52;;;4.55;;
66095;SDS011;53861;53.422;14.530;2023-03-23T02:46:07;10.60;;;5.07;;
66095;SDS011;53861;53.422;14.530;2023-03-23T02:48:41;10.05;;;5.45;;
66095;SDS011;53861;53.422;14.530;2023-03-23T02:51:11;11.25;;;4.97;;
66095;SDS011;53861;53.422;14.530;2023-03-23T02:53:41;9.57;;;5.60;;
66095;SDS011;53861;53.422;14.530;2023-03-23T02:56:11;7.97;;;4.15;;
66095;SDS011;53861;53.422;14.530;2023-03-23T02:58:41;10.32;;;5.20;;
66095;SDS011;53861;53.422;14.530;2023-03-23T03:01:16;10.60;;;5.05;;
66095;SDS011;53861;53.422;14.530;2023-03-23T03:04:20;8.38;;;4.75;;
66095;SDS011;53861;53.422;14.530;2023-03-23T03:06:53;12.07;;;4.68;;
66095;SDS011;53861;53.422;14.530;2023-03-23T03:09:30;8.77;;;4.75;;
66095;SDS011;53861;53.422;14.530;2023-03-23T03:12:08;10.55;;;5.22;;
66095;SDS011;53861;53.422;14.530;2023-03-23T03:14:45;9.75;;;4.65;;
66095;SDS011;53861;53.422;14.530;2023-03-23T03:17:19;8.80;;;5.00;;
66095;SDS011;53861;53.422;14.530;2023-03-23T03:19:54;8.88;;;4.65;;
66095;SDS011;53861;53.422;14.530;2023-03-23T03:22:35;9.48;;;4.60;;
66095;SDS011;53861;53.422;14.530;2023-03-23T03:25:08;9.25;;;4.80;;
66095;SDS011;53861;53.422;14.530;2023-03-23T03:27:39;11.88;;;4.47;;
66095;SDS011;53861;53.422;14.530;2023-03-23T03:30:16;8.60;;;4.55;;
66095;SDS011;53861;53.422;14.530;2023-03-23T03:32:51;8.10;;;4.97;;
66095;SDS011;53861;53.422;14.530;2023-03-23T03:35:22;8.65;;;4.78;;
66095;SDS011;53861;53.422;14.530;2023-03-23T03:37:52;9.63;;;4.88;;
66095;SDS011;53861;53.422;14.530;2023-03-23T03:40:21;8.10;;;4.28;;
66095;SDS011;53861;53.422;14.530;2023-03-23T03:42:49;11.93;;;6.20;;
66095;SDS011;53861;53.422;14.530;2023-03-23T03:45:20;9.40;;;5.13;;
66095;SDS011;53861;53.422;14.530;2023-03-23T03:47:48;10.85;;;5.03;;
66095;SDS011;53861;53.422;14.530;2023-03-23T03:50:16;8.63;;;4.82;;
66095;SDS011;53861;53.422;14.530;2023-03-23T03:52:48;9.07;;;4.78;;
66095;SDS011;53861;53.422;14.530;2023-03-23T03:55:19;13.33;;;5.47;;
66095;SDS011;53861;53.422;14.530;2023-03-23T03:57:53;10.00;;;5.00;;
66095;SDS011;53861;53.422;14.530;2023-03-23T04:00:21;9.40;;;5.30;;
66095;SDS011;53861;53.422;14.530;2023-03-23T04:02:49;12.43;;;5.47;;
66095;SDS011;53861;53.422;14.530;2023-03-23T04:05:20;9.98;;;4.85;;
66095;SDS011;53861;53.422;14.530;2023-03-23T04:07:52;8.77;;;5.25;;
66095;SDS011;53861;53.422;14.530;2023-03-23T04:10:20;10.02;;;5.40;;
66095;SDS011;53861;53.422;14.530;2023-03-23T04:12:48;10.85;;;5.22;;
66095;SDS011;53861;53.422;14.530;2023-03-23T04:15:20;9.55;;;4.95;;
66095;SDS011;53861;53.422;14.530;2023-03-23T04:17:50;9.43;;;5.10;;
66095;SDS011;53861;53.422;14.530;2023-03-23T04:20:22;9.13;;;5.40;;
66095;SDS011;53861;53.422;14.530;2023-03-23T04:22:50;11.32;;;5.40;;
66095;SDS011;53861;53.422;14.530;2023-03-23T04:25:22;13.20;;;5.45;;
66095;SDS011;53861;53.422;14.530;2023-03-23T04:27:51;10.90;;;5.20;;
66095;SDS011;53861;53.422;14.530;2023-03-23T04:30:24;12.77;;;5.72;;
66095;SDS011;53861;53.422;14.530;2023-03-23T04:32:55;9.57;;;5.07;;
66095;SDS011;53861;53.422;14.530;2023-03-23T04:35:26;11.27;;;5.90;;
66095;SDS011;53861;53.422;14.530;2023-03-23T04:37:56;10.77;;;5.57;;
66095;SDS011;53861;53.422;14.530;2023-03-23T04:40:24;9.80;;;4.95;;
66095;SDS011;53861;53.422;14.530;2023-03-23T04:42:52;13.52;;;5.38;;
66095;SDS011;53861;53.422;14.530;2023-03-23T04:45:23;13.32;;;5.85;;
66095;SDS011;53861;53.422;14.530;2023-03-23T04:47:51;11.25;;;4.95;;
66095;SDS011;53861;53.422;14.530;2023-03-23T04:50:23;11.18;;;4.78;;
66095;SDS011;53861;53.422;14.530;2023-03-23T04:52:58;10.48;;;5.53;;
66095;SDS011;53861;53.422;14.530;2023-03-23T04:55:29;11.85;;;6.00;;
66095;SDS011;53861;53.422;14.530;2023-03-23T04:58:01;10.65;;;5.35;;
66095;SDS011;53861;53.422;14.530;2023-03-23T05:00:30;13.85;;;5.93;;
66095;SDS011;53861;53.422;14.530;2023-03-23T05:02:58;11.32;;;6.10;;
66095;SDS011;53861;53.422;14.530;2023-03-23T05:05:26;12.80;;;6.38;;
66095;SDS011;53861;53.422;14.530;2023-03-23T05:08:00;11.43;;;6.20;;
66095;SDS011;53861;53.422;14.530;2023-03-23T05:10:28;12.68;;;5.78;;
66095;SDS011;53861;53.422;14.530;2023-03-23T05:12:58;11.68;;;5.80;;
66095;SDS011;53861;53.422;14.530;2023-03-23T05:15:26;17.40;;;7.40;;
66095;SDS011;53861;53.422;14.530;2023-03-23T05:17:53;12.25;;;6.00;;
66095;SDS011;53861;53.422;14.530;2023-03-23T05:20:21;15.85;;;6.10;;
66095;SDS011;53861;53.422;14.530;2023-03-23T05:23:06;10.75;;;5.88;;
66095;SDS011;53861;53.422;14.530;2023-03-23T05:25:35;13.70;;;6.10;;
66095;SDS011;53861;53.422;14.530;2023-03-23T05:28:15;12.05;;;5.50;;
66095;SDS011;53861;53.422;14.530;2023-03-23T05:30:54;11.30;;;5.65;;
66095;SDS011;53861;53.422;14.530;2023-03-23T05:33:29;9.75;;;5.13;;
66095;SDS011;53861;53.422;14.530;2023-03-23T05:35:57;15.45;;;7.10;;
66095;SDS011;53861;53.422;14.530;2023-03-23T05:38:25;14.63;;;6.43;;
66095;SDS011;53861;53.422;14.530;2023-03-23T05:40:58;12.02;;;6.10;;
66095;SDS011;53861;53.422;14.530;2023-03-23T05:43:27;12.85;;;6.10;;
66095;SDS011;53861;53.422;14.530;2023-03-23T05:45:55;10.13;;;4.80;;
66095;SDS011;53861;53.422;14.530;2023-03-23T05:48:26;10.85;;;5.35;;
66095;SDS011;53861;53.422;14.530;2023-03-23T05:50:54;11.27;;;5.82;;
66095;SDS011;53861;53.422;14.530;2023-03-23T05:53:26;12.60;;;6.43;;
66095;SDS011;53861;53.422;14.530;2023-03-23T05:55:57;13.63;;;6.18;;
66095;SDS011;53861;53.422;14.530;2023-03-23T05:58:25;10.52;;;5.53;;
66095;SDS011;53861;53.422;14.530;2023-03-23T06:00:53;13.48;;;6.75;;
66095;SDS011;53861;53.422;14.530;2023-03-23T06:03:21;16.65;;;7.90;;
66095;SDS011;53861;53.422;14.530;2023-03-23T06:05:51;13.98;;;6.03;;
66095;SDS011;53861;53.422;14.530;2023-03-23T06:08:20;14.25;;;6.55;;
66095;SDS011;53861;53.422;14.530;2023-03-23T06:10:50;15.65;;;7.40;;
66095;SDS011;53861;53.422;14.530;2023-03-23T06:13:19;18.33;;;8.05;;
66095;SDS011;53861;53.422;14.530;2023-03-23T06:15:48;18.40;;;10.00;;
66095;SDS011;53861;53.422;14.530;2023-03-23T06:18:16;16.73;;;7.05;;
66095;SDS011;53861;53.422;14.530;2023-03-23T06:20:44;21.98;;;9.70;;
66095;SDS011;53861;53.422;14.530;2023-03-23T06:23:12;17.75;;;7.20;;
66095;SDS011;53861;53.422;14.530;2023-03-23T06:25:42;17.42;;;8.90;;
66095;SDS011;53861;53.422;14.530;2023-03-23T06:28:11;16.92;;;8.10;;
66095;SDS011;53861;53.422;14.530;2023-03-23T06:30:39;18.00;;;9.10;;
66095;SDS011;53861;53.422;14.530;2023-03-23T06:33:06;18.73;;;9.30;;
66095;SDS011;53861;53.422;14.530;2023-03-23T06:35:35;15.93;;;7.88;;
66095;SDS011;53861;53.422;14.530;2023-03-23T06:38:03;16.95;;;8.05;;
66095;SDS011;53861;53.422;14.530;2023-03-23T06:40:31;22.02;;;8.88;;
66095;SDS011;53861;53.422;14.530;2023-03-23T06:43:03;17.92;;;7.75;;
66095;SDS011;53861;53.422;14.530;2023-03-23T06:45:33;17.75;;;8.82;;
66095;SDS011;53861;53.422;14.530;2023-03-23T06:48:03;19.83;;;8.45;;
66095;SDS011;53861;53.422;14.530;2023-03-23T06:50:32;21.65;;;8.45;;
66095;SDS011;53861;53.422;14.530;2023-03-23T06:52:59;15.30;;;7.70;;
66095;SDS011;53861;53.422;14.530;2023-03-23T06:55:27;18.55;;;7.80;;
66095;SDS011;53861;53.422;14.530;2023-03-23T06:57:57;17.38;;;7.45;;
66095;SDS011;53861;53.422;14.530;2023-03-23T07:00:37;18.38;;;7.97;;
66095;SDS011;53861;53.422;14.530;2023-03-23T07:03:11;18.85;;;8.45;;
66095;SDS011;53861;53.422;14.530;2023-03-23T07:05:41;16.77;;;7.47;;
66095;SDS011;53861;53.422;14.530;2023-03-23T07:08:14;16.48;;;7.40;;
66095;SDS011;53861;53.422;14.530;2023-03-23T07:10:45;20.25;;;8.10;;
66095;SDS011;53861;53.422;14.530;2023-03-23T07:13:16;15.55;;;7.38;;
66095;SDS011;53861;53.422;14.530;2023-03-23T07:15:45;18.38;;;7.75;;
66095;SDS011;53861;53.422;14.530;2023-03-23T07:18:14;16.95;;;8.13;;
66095;SDS011;53861;53.422;14.530;2023-03-23T07:20:47;19.60;;;8.45;;
66095;SDS011;53861;53.422;14.530;2023-03-23T07:23:15;14.73;;;6.85;;
66095;SDS011;53861;53.422;14.530;2023-03-23T07:25:43;18.88;;;6.55;;
66095;SDS011;53861;53.422;14.530;2023-03-23T07:28:11;14.02;;;6.57;;
66095;SDS011;53861;53.422;14.530;2023-03-23T07:30:39;15.98;;;7.75;;
66095;SDS011;53861;53.422;14.530;2023-03-23T07:33:08;15.60;;;6.70;;
66095;SDS011;53861;53.422;14.530;2023-03-23T07:35:36;14.98;;;6.38;;
66095;SDS011;53861;53.422;14.530;2023-03-23T07:38:04;14.50;;;7.32;;
66095;SDS011;53861;53.422;14.530;2023-03-23T07:40:31;16.35;;;7.25;;
66095;SDS011;53861;53.422;14.530;2023-03-23T07:43:00;14.75;;;6.32;;
66095;SDS011;53861;53.422;14.530;2023-03-23T07:45:30;18.05;;;7.38;;
66095;SDS011;53861;53.422;14.530;2023-03-23T07:47:57;17.40;;;6.93;;
66095;SDS011;53861;53.422;14.530;2023-03-23T07:50:27;19.10;;;7.93;;
66095;SDS011;53861;53.422;14.530;2023-03-23T07:52:55;18.40;;;7.63;;
66095;SDS011;53861;53.422;14.530;2023-03-23T07:55:24;16.92;;;8.10;;
66095;SDS011;53861;53.422;14.530;2023-03-23T07:57:53;20.58;;;8.23;;
66095;SDS011;53861;53.422;14.530;2023-03-23T08:00:21;21.92;;;9.32;;
66095;SDS011;53861;53.422;14.530;2023-03-23T08:02:50;17.30;;;8.05;;
66095;SDS011;53861;53.422;14.530;2023-03-23T08:05:19;16.40;;;7.80;;
66095;SDS011;53861;53.422;14.530;2023-03-23T08:07:49;16.80;;;7.45;;
66095;SDS011;53861;53.422;14.530;2023-03-23T08:10:17;21.10;;;7.65;;
66095;SDS011;53861;53.422;14.530;2023-03-23T08:12:45;18.95;;;8.02;;
66095;SDS011;53861;53.422;14.530;2023-03-23T08:15:13;18.38;;;8.18;;
66095;SDS011;53861;53.422;14.530;2023-03-23T08:17:45;17.13;;;7.95;;
66095;SDS011;53861;53.422;14.530;2023-03-23T08:20:13;14.73;;;6.38;;
66095;SDS011;53861;53.422;14.530;2023-03-23T08:22:43;17.77;;;6.38;;
66095;SDS011;53861;53.422;14.530;2023-03-23T08:25:13;15.52;;;6.18;;
66095;SDS011;53861;53.422;14.530;2023-03-23T08:27:42;13.77;;;5.05;;
66095;SDS011;53861;53.422;14.530;2023-03-23T08:30:11;12.40;;;5.78;;
66095;SDS011;53861;53.422;14.530;2023-03-23T08:32:39;16.17;;;6.30;;
66095;SDS011;53861;53.422;14.530;2023-03-23T08:35:07;13.75;;;7.03;;
66095;SDS011;53861;53.422;14.530;2023-03-23T08:37:36;14.75;;;6.68;;
66095;SDS011;53861;53.422;14.530;2023-03-23T08:40:06;15.40;;;6.57;;
66095;SDS011;53861;53.422;14.530;2023-03-23T08:42:37;14.73;;;6.22;;
66095;SDS011;53861;53.422;14.530;2023-03-23T08:45:05;11.88;;;4.72;;
66095;SDS011;53861;53.422;14.530;2023-03-23T08:47:34;16.00;;;6.68;;
66095;SDS011;53861;53.422;14.530;2023-03-23T08:50:02;21.77;;;8.73;;
66095;SDS011;53861;53.422;14.530;2023-03-23T08:52:30;14.10;;;6.47;;
66095;SDS011;53861;53.422;14.530;2023-03-23T08:54:58;14.48;;;6.80;;
66095;SDS011;53861;53.422;14.530;2023-03-23T08:57:26;17.05;;;6.65;;
66095;SDS011;53861;53.422;14.530;2023-03-23T08:59:56;17.38;;;7.55;;
66095;SDS011;53861;53.422;14.530;2023-03-23T09:02:27;15.57;;;7.95;;
66095;SDS011;53861;53.422;14.530;2023-03-23T09:04:56;14.15;;;6.57;;
66095;SDS011;53861;53.422;14.530;2023-03-23T09:07:24;16.75;;;7.30;;
66095;SDS011;53861;53.422;14.530;2023-03-23T09:09:53;19.60;;;7.75;;
66095;SDS011;53861;53.422;14.530;2023-03-23T09:12:20;17.63;;;7.97;;
66095;SDS011;53861;53.422;14.530;2023-03-23T09:14:49;15.35;;;6.45;;
66095;SDS011;53861;53.422;14.530;2023-03-23T09:17:17;18.05;;;7.18;;
66095;SDS011;53861;53.422;14.530;2023-03-23T09:19:45;15.02;;;6.97;;
66095;SDS011;53861;53.422;14.530;2023-03-23T09:22:12;13.63;;;7.18;;
66095;SDS011;53861;53.422;14.530;2023-03-23T09:24:41;16.08;;;7.57;;
66095;SDS011;53861;53.422;14.530;2023-03-23T09:27:08;17.67;;;9.00;;
66095;SDS011;53861;53.422;14.530;2023-03-23T09:29:35;15.85;;;7.47;;
66095;SDS011;53861;53.422;14.530;2023-03-23T09:32:03;19.60;;;7.88;;
66095;SDS011;53861;53.422;14.530;2023-03-23T09:34:32;13.02;;;6.15;;
66095;SDS011;53861;53.422;14.530;2023-03-23T09:37:01;14.18;;;6.88;;
66095;SDS011;53861;53.422;14.530;2023-03-23T09:39:29;12.52;;;6.03;;
66095;SDS011;53861;53.422;14.530;2023-03-23T09:42:01;12.50;;;5.47;;
66095;SDS011;53861;53.422;14.530;2023-03-23T09:44:44;14.93;;;6.28;;
66095;SDS011;53861;53.422;14.530;2023-03-23T09:47:23;9.40;;;4.93;;
66095;SDS011;53861;53.422;14.530;2023-03-23T09:49:59;12.02;;;5.43;;
66095;SDS011;53861;53.422;14.530;2023-03-23T09:52:37;8.77;;;3.92;;
66095;SDS011;53861;53.422;14.530;2023-03-23T09:55:09;13.85;;;5.32;;
66095;SDS011;53861;53.422;14.530;2023-03-23T09:57:41;10.88;;;5.40;;
66095;SDS011;53861;53.422;14.530;2023-03-23T10:00:15;10.35;;;5.05;;
66095;SDS011;53861;53.422;14.530;2023-03-23T10:05:25;8.90;;;4.45;;
66095;SDS011;53861;53.422;14.530;2023-03-23T10:07:57;10.45;;;4.25;;
66095;SDS011;53861;53.422;14.530;2023-03-23T10:10:29;12.98;;;3.50;;
66095;SDS011;53861;53.422;14.530;2023-03-23T10:13:06;8.60;;;3.53;;
66095;SDS011;53861;53.422;14.530;2023-03-23T10:15:42;8.02;;;4.05;;
66095;SDS011;53861;53.422;14.530;2023-03-23T10:18:13;7.45;;;3.30;;
66095;SDS011;53861;53.422;14.530;2023-03-23T10:23:24;9.57;;;4.28;;
66095;SDS011;53861;53.422;14.530;2023-03-23T10:26:10;7.83;;;3.40;;
66095;SDS011;53861;53.422;14.530;2023-03-23T10:28:46;7.28;;;2.92;;
66095;SDS011;53861;53.422;14.530;2023-03-23T10:31:20;7.68;;;3.35;;
66095;SDS011;53861;53.422;14.530;2023-03-23T10:33:50;7.78;;;3.13;;
66095;SDS011;53861;53.422;14.530;2023-03-23T10:36:23;7.50;;;3.20;;
66095;SDS011;53861;53.422;14.530;2023-03-23T10:38:54;9.48;;;3.15;;
66095;SDS011;53861;53.422;14.530;2023-03-23T10:41:24;5.60;;;2.97;;
66095;SDS011;53861;53.422;14.530;2023-03-23T10:43:51;6.80;;;2.85;;
66095;SDS011;53861;53.422;14.530;2023-03-23T10:46:22;7.88;;;3.10;;
66095;SDS011;53861;53.422;14.530;2023-03-23T10:48:59;6.07;;;2.50;;
66095;SDS011;53861;53.422;14.530;2023-03-23T10:51:33;6.22;;;3.30;;
66095;SDS011;53861;53.422;14.530;2023-03-23T10:54:03;6.63;;;2.97;;
66095;SDS011;53861;53.422;14.530;2023-03-23T10:56:35;6.25;;;2.90;;
66095;SDS011;53861;53.422;14.530;2023-03-23T10:59:13;6.20;;;2.80;;
66095;SDS011;53861;53.422;14.530;2023-03-23T11:01:47;9.32;;;3.05;;
66095;SDS011;53861;53.422;14.530;2023-03-23T11:04:21;6.10;;;2.28;;
66095;SDS011;53861;53.422;14.530;2023-03-23T11:06:52;6.38;;;2.90;;
66095;SDS011;53861;53.422;14.530;2023-03-23T11:09:22;9.10;;;2.67;;
66095;SDS011;53861;53.422;14.530;2023-03-23T11:12:02;7.65;;;2.90;;
66095;SDS011;53861;53.422;14.530;2023-03-23T11:14:30;5.72;;;2.88;;
66095;SDS011;53861;53.422;14.530;2023-03-23T11:16:59;7.90;;;2.17;;
66095;SDS011;53861;53.422;14.530;2023-03-23T11:19:28;5.25;;;2.72;;
66095;SDS011;53861;53.422;14.530;2023-03-23T11:21:59;13.20;;;2.50;;
66095;SDS011;53861;53.422;14.530;2023-03-23T11:24:33;6.35;;;2.72;;
66095;SDS011;53861;53.422;14.530;2023-03-23T11:27:03;6.13;;;2.35;;
66095;SDS011;53861;53.422;14.530;2023-03-23T11:29:34;6.57;;;2.60;;
66095;SDS011;53861;53.422;14.530;2023-03-23T11:32:22;4.30;;;2.30;;
66095;SDS011;53861;53.422;14.530;2023-03-23T11:34:57;7.20;;;2.53;;
66095;SDS011;53861;53.422;14.530;2023-03-23T11:37:30;13.23;;;2.60;;
66095;SDS011;53861;53.422;14.530;2023-03-23T11:40:00;5.30;;;2.20;;
66095;SDS011;53861;53.422;14.530;2023-03-23T11:42:35;5.10;;;2.30;;
66095;SDS011;53861;53.422;14.530;2023-03-23T11:45:13;5.55;;;2.28;;
66095;SDS011;53861;53.422;14.530;2023-03-23T11:47:45;5.18;;;2.35;;
66095;SDS011;53861;53.422;14.530;2023-03-23T11:50:22;8.43;;;2.50;;
66095;SDS011;53861;53.422;14.530;2023-03-23T11:52:55;4.32;;;2.20;;
66095;SDS011;53861;53.422;14.530;2023-03-23T11:55:31;5.03;;;2.35;;
66095;SDS011;53861;53.422;14.530;2023-03-23T11:58:07;6.00;;;2.47;;
66095;SDS011;53861;53.422;14.530;2023-03-23T12:00:39;5.15;;;2.20;;
66095;SDS011;53861;53.422;14.530;2023-03-23T12:03:25;6.50;;;2.30;;
66095;SDS011;53861;53.422;14.530;2023-03-23T12:06:06;6.05;;;2.22;;
66095;SDS011;53861;53.422;14.530;2023-03-23T12:08:45;6.28;;;2.50;;
66095;SDS011;53861;53.422;14.530;2023-03-23T12:11:23;10.60;;;2.40;;
66095;SDS011;53861;53.422;14.530;2023-03-23T12:13:59;4.80;;;2.50;;
66095;SDS011;53861;53.422;14.530;2023-03-23T12:16:40;4.95;;;2.58;;
66095;SDS011;53861;53.422;14.530;2023-03-23T12:19:18;5.28;;;2.38;;
66095;SDS011;53861;53.422;14.530;2023-03-23T12:21:55;7.20;;;2.33;;
66095;SDS011;53861;53.422;14.530;2023-03-23T12:24:33;4.68;;;2.13;;
66095;SDS011;53861;53.422;14.530;2023-03-23T12:27:11;6.70;;;2.35;;
66095;SDS011;53861;53.422;14.530;2023-03-23T12:32:49;7.70;;;2.10;;
66095;SDS011;53861;53.422;14.530;2023-03-23T12:35:28;5.25;;;2.00;;
66095;SDS011;53861;53.422;14.530;2023-03-23T12:38:07;6.00;;;2.45;;
66095;SDS011;53861;53.422;14.530;2023-03-23T12:40:56;4.93;;;2.20;;
66095;SDS011;53861;53.422;14.530;2023-03-23T12:43:33;6.28;;;2.25;;
66095;SDS011;53861;53.422;14.530;2023-03-23T12:46:09;5.50;;;2.42;;
66095;SDS011;53861;53.422;14.530;2023-03-23T12:48:51;5.57;;;2.40;;
66095;SDS011;53861;53.422;14.530;2023-03-23T12:53:55;7.10;;;2.58;;
66095;SDS011;53861;53.422;14.530;2023-03-23T12:56:28;4.53;;;2.20;;
66095;SDS011;53861;53.422;14.530;2023-03-23T12:59:01;4.00;;;2.10;;
66095;SDS011;53861;53.422;14.530;2023-03-23T13:01:35;8.95;;;2.50;;
66095;SDS011;53861;53.422;14.530;2023-03-23T13:04:07;7.03;;;2.38;;
66095;SDS011;53861;53.422;14.530;2023-03-23T13:06:37;5.85;;;2.13;;
66095;SDS011;53861;53.422;14.530;2023-03-23T13:09:10;4.55;;;2.10;;
66095;SDS011;53861;53.422;14.530;2023-03-23T13:11:44;4.78;;;2.25;;
66095;SDS011;53861;53.422;14.530;2023-03-23T13:14:18;6.07;;;2.25;;
66095;SDS011;53861;53.422;14.530;2023-03-23T13:17:00;8.05;;;2.53;;
66095;SDS011;53861;53.422;14.530;2023-03-23T13:19:51;8.05;;;2.50;;
66095;SDS011;53861;53.422;14.530;2023-03-23T13:22:27;5.95;;;2.03;;
66095;SDS011;53861;53.422;14.530;2023-03-23T13:25:03;4.45;;;2.03;;
66095;SDS011;53861;53.422;14.530;2023-03-23T13:27:37;5.68;;;2.30;;
66095;SDS011;53861;53.422;14.530;2023-03-23T13:30:05;6.25;;;2.35;;
66095;SDS011;53861;53.422;14.530;2023-03-23T13:32:48;5.25;;;2.40;;
66095;SDS011;53861;53.422;14.530;2023-03-23T13:35:16;6.05;;;2.35;;
66095;SDS011;53861;53.422;14.530;2023-03-23T13:37:48;5.05;;;2.20;;
66095;SDS011;53861;53.422;14.530;2023-03-23T13:40:20;6.20;;;2.20;;
66095;SDS011;53861;53.422;14.530;2023-03-23T13:42:55;7.32;;;2.20;;
66095;SDS011;53861;53.422;14.530;2023-03-23T13:45:34;5.70;;;2.05;;
66095;SDS011;53861;53.422;14.530;2023-03-23T13:48:19;8.55;;;2.05;;
66095;SDS011;53861;53.422;14.530;2023-03-23T13:50:50;5.10;;;1.98;;
66095;SDS011;53861;53.422;14.530;2023-03-23T13:53:24;5.38;;;2.60;;
66095;SDS011;53861;53.422;14.530;2023-03-23T13:56:06;4.97;;;2.08;;
66095;SDS011;53861;53.422;14.530;2023-03-23T13:58:48;10.07;;;3.03;;
66095;SDS011;53861;53.422;14.530;2023-03-23T14:01:18;8.95;;;2.30;;
66095;SDS011;53861;53.422;14.530;2023-03-23T14:03:59;9.55;;;2.50;;
66095;SDS011;53861;53.422;14.530;2023-03-23T14:06:32;5.07;;;2.25;;
66095;SDS011;53861;53.422;14.530;2023-03-23T14:11:32;4.60;;;2.35;;
66095;SDS011;53861;53.422;14.530;2023-03-23T14:14:13;5.63;;;2.15;;
66095;SDS011;53861;53.422;14.530;2023-03-23T14:16:50;6.03;;;2.17;;
66095;SDS011;53861;53.422;14.530;2023-03-23T14:19:21;7.43;;;2.65;;
66095;SDS011;53861;53.422;14.530;2023-03-23T14:21:52;7.32;;;2.83;;
66095;SDS011;53861;53.422;14.530;2023-03-23T14:24:23;5.90;;;2.30;;
66095;SDS011;53861;53.422;14.530;2023-03-23T14:26:52;4.93;;;2.55;;
66095;SDS011;53861;53.422;14.530;2023-03-23T14:29:31;5.75;;;2.42;;
66095;SDS011;53861;53.422;14.530;2023-03-23T14:32:01;9.45;;;3.83;;
66095;SDS011;53861;53.422;14.530;2023-03-23T14:34:36;7.70;;;2.83;;
66095;SDS011;53861;53.422;14.530;2023-03-23T14:37:03;10.70;;;3.15;;
66095;SDS011;53861;53.422;14.530;2023-03-23T14:39:32;9.18;;;3.20;;
66095;SDS011;53861;53.422;14.530;2023-03-23T14:42:03;8.48;;;3.22;;
66095;SDS011;53861;53.422;14.530;2023-03-23T14:44:37;9.43;;;3.35;;
66095;SDS011;53861;53.422;14.530;2023-03-23T14:47:10;5.07;;;1.73;;
66095;SDS011;53861;53.422;14.530;2023-03-23T14:49:43;4.70;;;1.90;;
66095;SDS011;53861;53.422;14.530;2023-03-23T14:52:11;7.15;;;2.20;;
66095;SDS011;53861;53.422;14.530;2023-03-23T14:54:39;6.22;;;2.60;;
66095;SDS011;53861;53.422;14.530;2023-03-23T14:57:11;9.45;;;3.28;;
66095;SDS011;53861;53.422;14.530;2023-03-23T14:59:41;9.97;;;4.10;;
66095;SDS011;53861;53.422;14.530;2023-03-23T15:02:11;11.68;;;3.40;;
66095;SDS011;53861;53.422;14.530;2023-03-23T15:04:40;10.55;;;3.85;;
66095;SDS011;53861;53.422;14.530;2023-03-23T15:07:09;7.45;;;3.25;;
66095;SDS011;53861;53.422;14.530;2023-03-23T15:09:41;6.88;;;3.30;;
66095;SDS011;53861;53.422;14.530;2023-03-23T15:12:13;9.10;;;3.50;;
66095;SDS011;53861;53.422;14.530;2023-03-23T15:14:49;8.30;;;3.10;;
66095;SDS011;53861;53.422;14.530;2023-03-23T15:17:19;7.40;;;3.08;;